sensor_id;sensor_type;location;lat;lon;timestamp;P1;durP1;ratioP1;P2;durP2;ratioP2
80421;SDS011;69763;50.182;9.144;2023-08-21T00:00:05;10.90;;;6.00;;
80421;SDS011;69763;50.182;9.144;2023-08-21T00:02:32;9.15;;;5.45;;
80421;SDS011;69763;50.182;9.144;2023-08-21T00:04:58;11.23;;;6.18;;
80421;SDS011;69763;50.182;9.144;2023-08-21T00:07:24;15.50;;;6.22;;
80421;SDS011;69763;50.182;9.144;2023-08-21T00:09:50;9.23;;;5.50;;
80421;SDS011;69763;50.182;9.144;2023-08-21T00:12:15;8.63;;;5.80;;
80421;SDS011;69763;50.182;9.144;2023-08-21T00:14:41;11.25;;;6.00;;
80421;SDS011;69763;50.182;9.144;2023-08-21T00:17:06;16.13;;;6.70;;
80421;SDS011;69763;50.182;9.144;2023-08-21T00:19:32;8.57;;;5.65;;
80421;SDS011;69763;50.182;9.144;2023-08-21T00:21:58;10.93;;;6.30;;
80421;SDS011;69763;50.182;9.144;2023-08-21T00:24:26;10.80;;;6.68;;
80421;SDS011;69763;50.182;9.144;2023-08-21T00:26:52;13.32;;;7.05;;
80421;SDS011;69763;50.182;9.144;2023-08-21T00:29:17;12.98;;;6.63;;
80421;SDS011;69763;50.182;9.144;2023-08-21T00:31:42;22.35;;;6.80;;
80421;SDS011;69763;50.182;9.144;2023-08-21T00:34:08;12.02;;;6.40;;
80421;SDS011;69763;50.182;9.144;2023-08-21T00:36:33;12.27;;;6.28;;
80421;SDS011;69763;50.182;9.144;2023-08-21T00:38:59;11.55;;;6.57;;
80421;SDS011;69763;50.182;9.144;2023-08-21T00:41:26;13.10;;;6.53;;
80421;SDS011;69763;50.182;9.144;2023-08-21T00:43:51;10.52;;;6.85;;
80421;SDS011;69763;50.182;9.144;2023-08-21T00:46:17;12.57;;;6.80;;
80421;SDS011;69763;50.182;9.144;2023-08-21T00:48:43;9.27;;;6.20;;
80421;SDS011;69763;50.182;9.144;2023-08-21T00:51:09;13.82;;;6.07;;
80421;SDS011;69763;50.182;9.144;2023-08-21T00:53:35;10.57;;;6.80;;
80421;SDS011;69763;50.182;9.144;2023-08-21T00:56:01;10.23;;;6.88;;
80421;SDS011;69763;50.182;9.144;2023-08-21T00:58:28;11.15;;;7.32;;
80421;SDS011;69763;50.182;9.144;2023-08-21T01:00:53;11.63;;;6.47;;
80421;SDS011;69763;50.182;9.144;2023-08-21T01:03:19;13.40;;;7.15;;
80421;SDS011;69763;50.182;9.144;2023-08-21T01:05:45;9.18;;;6.15;;
80421;SDS011;69763;50.182;9.144;2023-08-21T01:08:11;9.55;;;6.22;;
80421;SDS011;69763;50.182;9.144;2023-08-21T01:10:42;10.93;;;6.78;;
80421;SDS011;69763;50.182;9.144;2023-08-21T01:13:19;9.43;;;6.35;;
80421;SDS011;69763;50.182;9.144;2023-08-21T01:15:51;12.98;;;6.40;;
80421;SDS011;69763;50.182;9.144;2023-08-21T01:18:18;12.75;;;6.90;;
80421;SDS011;69763;50.182;9.144;2023-08-21T01:20:44;12.10;;;6.25;;
80421;SDS011;69763;50.182;9.144;2023-08-21T01:23:25;10.65;;;6.45;;
80421;SDS011;69763;50.182;9.144;2023-08-21T01:25:53;11.85;;;5.95;;
80421;SDS011;69763;50.182;9.144;2023-08-21T01:28:18;11.82;;;6.32;;
80421;SDS011;69763;50.182;9.144;2023-08-21T01:30:44;11.75;;;6.47;;
80421;SDS011;69763;50.182;9.144;2023-08-21T01:33:10;13.95;;;6.45;;
80421;SDS011;69763;50.182;9.144;2023-08-21T01:35:39;9.40;;;6.32;;
80421;SDS011;69763;50.182;9.144;2023-08-21T01:38:05;13.98;;;6.75;;
80421;SDS011;69763;50.182;9.144;2023-08-21T01:40:33;13.30;;;7.72;;
80421;SDS011;69763;50.182;9.144;2023-08-21T01:42:58;12.20;;;6.60;;
80421;SDS011;69763;50.182;9.144;2023-08-21T01:45:24;10.20;;;6.43;;
80421;SDS011;69763;50.182;9.144;2023-08-21T01:47:49;10.93;;;6.30;;
80421;SDS011;69763;50.182;9.144;2023-08-21T01:50:15;14.68;;;7.30;;
80421;SDS011;69763;50.182;9.144;2023-08-21T01:52:40;12.85;;;6.50;;
80421;SDS011;69763;50.182;9.144;2023-08-21T01:55:06;12.57;;;7.18;;
80421;SDS011;69763;50.182;9.144;2023-08-21T01:57:33;10.80;;;6.35;;
80421;SDS011;69763;50.182;9.144;2023-08-21T01:59:59;13.25;;;6.63;;
80421;SDS011;69763;50.182;9.144;2023-08-21T02:02:24;12.15;;;6.63;;
80421;SDS011;69763;50.182;9.144;2023-08-21T02:04:50;14.25;;;7.00;;
80421;SDS011;69763;50.182;9.144;2023-08-21T02:07:15;11.88;;;6.50;;
80421;SDS011;69763;50.182;9.144;2023-08-21T02:09:41;9.50;;;6.25;;
80421;SDS011;69763;50.182;9.144;2023-08-21T02:12:06;11.20;;;7.07;;
80421;SDS011;69763;50.182;9.144;2023-08-21T02:14:34;12.57;;;7.55;;
80421;SDS011;69763;50.182;9.144;2023-08-21T02:16:59;12.10;;;6.85;;
80421;SDS011;69763;50.182;9.144;2023-08-21T02:19:25;16.65;;;7.65;;
80421;SDS011;69763;50.182;9.144;2023-08-21T02:21:50;19.13;;;8.48;;
80421;SDS011;69763;50.182;9.144;2023-08-21T02:24:16;11.98;;;7.30;;
80421;SDS011;69763;50.182;9.144;2023-08-21T02:26:41;13.70;;;7.60;;
80421;SDS011;69763;50.182;9.144;2023-08-21T02:29:07;14.40;;;7.32;;
80421;SDS011;69763;50.182;9.144;2023-08-21T02:31:34;10.57;;;6.20;;
80421;SDS011;69763;50.182;9.144;2023-08-21T02:33:59;11.57;;;7.38;;
80421;SDS011;69763;50.182;9.144;2023-08-21T02:36:25;14.07;;;7.68;;
80421;SDS011;69763;50.182;9.144;2023-08-21T02:38:50;12.50;;;6.97;;
80421;SDS011;69763;50.182;9.144;2023-08-21T02:41:16;13.18;;;6.80;;
80421;SDS011;69763;50.182;9.144;2023-08-21T02:43:41;10.57;;;6.80;;
80421;SDS011;69763;50.182;9.144;2023-08-21T02:46:07;9.85;;;7.20;;
80421;SDS011;69763;50.182;9.144;2023-08-21T02:48:34;14.18;;;7.63;;
80421;SDS011;69763;50.182;9.144;2023-08-21T02:50:59;10.95;;;7.03;;
80421;SDS011;69763;50.182;9.144;2023-08-21T02:53:25;10.57;;;6.88;;
80421;SDS011;69763;50.182;9.144;2023-08-21T02:55:50;10.45;;;7.82;;
80421;SDS011;69763;50.182;9.144;2023-08-21T02:58:15;12.27;;;7.40;;
80421;SDS011;69763;50.182;9.144;2023-08-21T03:00:41;13.85;;;7.00;;
80421;SDS011;69763;50.182;9.144;2023-08-21T03:03:06;10.95;;;7.20;;
80421;SDS011;69763;50.182;9.144;2023-08-21T03:05:33;11.07;;;7.28;;
80421;SDS011;69763;50.182;9.144;2023-08-21T03:07:59;11.77;;;7.72;;
80421;SDS011;69763;50.182;9.144;2023-08-21T03:10:24;14.30;;;7.47;;
80421;SDS011;69763;50.182;9.144;2023-08-21T03:12:50;12.85;;;7.28;;
80421;SDS011;69763;50.182;9.144;2023-08-21T03:15:15;12.35;;;7.55;;
80421;SDS011;69763;50.182;9.144;2023-08-21T03:17:41;13.60;;;7.03;;
80421;SDS011;69763;50.182;9.144;2023-08-21T03:20:07;11.63;;;7.47;;
80421;SDS011;69763;50.182;9.144;2023-08-21T03:22:34;11.07;;;7.22;;
80421;SDS011;69763;50.182;9.144;2023-08-21T03:25:00;13.32;;;7.65;;
80421;SDS011;69763;50.182;9.144;2023-08-21T03:27:25;11.10;;;7.55;;
80421;SDS011;69763;50.182;9.144;2023-08-21T03:29:50;12.10;;;7.65;;
80421;SDS011;69763;50.182;9.144;2023-08-21T03:32:16;13.63;;;8.00;;
80421;SDS011;69763;50.182;9.144;2023-08-21T03:34:42;11.20;;;7.47;;
80421;SDS011;69763;50.182;9.144;2023-08-21T03:37:08;9.65;;;6.97;;
80421;SDS011;69763;50.182;9.144;2023-08-21T03:39:35;14.23;;;8.52;;
80421;SDS011;69763;50.182;9.144;2023-08-21T03:42:00;11.63;;;7.50;;
80421;SDS011;69763;50.182;9.144;2023-08-21T03:44:26;13.20;;;7.43;;
80421;SDS011;69763;50.182;9.144;2023-08-21T03:46:51;15.23;;;7.45;;
80421;SDS011;69763;50.182;9.144;2023-08-21T03:49:17;12.60;;;7.38;;
80421;SDS011;69763;50.182;9.144;2023-08-21T03:51:42;13.70;;;7.72;;
80421;SDS011;69763;50.182;9.144;2023-08-21T03:54:08;15.48;;;8.40;;
80421;SDS011;69763;50.182;9.144;2023-08-21T03:56:35;15.43;;;9.32;;
80421;SDS011;69763;50.182;9.144;2023-08-21T03:59:00;13.35;;;7.32;;
80421;SDS011;69763;50.182;9.144;2023-08-21T04:01:26;14.95;;;8.02;;
80421;SDS011;69763;50.182;9.144;2023-08-21T04:03:51;14.38;;;7.90;;
80421;SDS011;69763;50.182;9.144;2023-08-21T04:06:17;13.13;;;8.10;;
80421;SDS011;69763;50.182;9.144;2023-08-21T04:08:42;13.48;;;8.05;;
80421;SDS011;69763;50.182;9.144;2023-08-21T04:11:07;14.38;;;7.72;;
80421;SDS011;69763;50.182;9.144;2023-08-21T04:13:34;19.52;;;8.85;;
80421;SDS011;69763;50.182;9.144;2023-08-21T04:16:00;15.85;;;8.80;;
80421;SDS011;69763;50.182;9.144;2023-08-21T04:18:25;15.95;;;7.97;;
80421;SDS011;69763;50.182;9.144;2023-08-21T04:20:51;12.77;;;6.70;;
80421;SDS011;69763;50.182;9.144;2023-08-21T04:23:16;12.98;;;8.00;;
80421;SDS011;69763;50.182;9.144;2023-08-21T04:25:41;14.35;;;7.82;;
80421;SDS011;69763;50.182;9.144;2023-08-21T04:28:07;14.05;;;7.68;;
80421;SDS011;69763;50.182;9.144;2023-08-21T04:30:34;11.75;;;7.95;;
80421;SDS011;69763;50.182;9.144;2023-08-21T04:32:59;13.05;;;8.00;;
80421;SDS011;69763;50.182;9.144;2023-08-21T04:35:25;11.95;;;7.20;;
80421;SDS011;69763;50.182;9.144;2023-08-21T04:37:50;14.27;;;8.10;;
80421;SDS011;69763;50.182;9.144;2023-08-21T04:40:16;17.10;;;7.65;;
80421;SDS011;69763;50.182;9.144;2023-08-21T04:42:41;14.52;;;8.25;;
80421;SDS011;69763;50.182;9.144;2023-08-21T04:45:07;16.42;;;8.25;;
80421;SDS011;69763;50.182;9.144;2023-08-21T04:47:34;15.30;;;8.45;;
80421;SDS011;69763;50.182;9.144;2023-08-21T04:50:00;16.95;;;8.23;;
80421;SDS011;69763;50.182;9.144;2023-08-21T04:52:25;13.70;;;8.23;;
80421;SDS011;69763;50.182;9.144;2023-08-21T04:54:51;18.02;;;8.30;;
80421;SDS011;69763;50.182;9.144;2023-08-21T04:57:17;15.45;;;8.27;;
80421;SDS011;69763;50.182;9.144;2023-08-21T04:59:42;13.48;;;8.38;;
80421;SDS011;69763;50.182;9.144;2023-08-21T05:02:08;14.48;;;8.02;;
80421;SDS011;69763;50.182;9.144;2023-08-21T05:04:35;14.82;;;7.55;;
80421;SDS011;69763;50.182;9.144;2023-08-21T05:07:01;15.02;;;8.25;;
80421;SDS011;69763;50.182;9.144;2023-08-21T05:09:26;12.07;;;8.25;;
80421;SDS011;69763;50.182;9.144;2023-08-21T05:11:52;14.20;;;7.90;;
80421;SDS011;69763;50.182;9.144;2023-08-21T05:14:17;14.07;;;7.88;;
80421;SDS011;69763;50.182;9.144;2023-08-21T05:16:43;14.20;;;8.60;;
80421;SDS011;69763;50.182;9.144;2023-08-21T05:19:08;12.73;;;8.77;;
80421;SDS011;69763;50.182;9.144;2023-08-21T05:21:35;15.68;;;8.25;;
80421;SDS011;69763;50.182;9.144;2023-08-21T05:24:00;13.45;;;7.65;;
80421;SDS011;69763;50.182;9.144;2023-08-21T05:26:26;15.52;;;8.55;;
80421;SDS011;69763;50.182;9.144;2023-08-21T05:28:51;13.32;;;8.02;;
80421;SDS011;69763;50.182;9.144;2023-08-21T05:31:16;11.93;;;8.20;;
80421;SDS011;69763;50.182;9.144;2023-08-21T05:33:42;12.07;;;8.43;;
80421;SDS011;69763;50.182;9.144;2023-08-21T05:36:07;14.18;;;7.68;;
80421;SDS011;69763;50.182;9.144;2023-08-21T05:38:34;11.38;;;7.30;;
80421;SDS011;69763;50.182;9.144;2023-08-21T05:41:00;14.05;;;7.57;;
80421;SDS011;69763;50.182;9.144;2023-08-21T05:43:25;11.38;;;7.00;;
80421;SDS011;69763;50.182;9.144;2023-08-21T05:45:51;13.50;;;7.70;;
80421;SDS011;69763;50.182;9.144;2023-08-21T05:48:16;16.13;;;7.85;;
80421;SDS011;69763;50.182;9.144;2023-08-21T05:50:41;14.55;;;6.60;;
80421;SDS011;69763;50.182;9.144;2023-08-21T05:53:07;9.88;;;7.03;;
80421;SDS011;69763;50.182;9.144;2023-08-21T05:55:34;10.93;;;7.43;;
80421;SDS011;69763;50.182;9.144;2023-08-21T05:58:01;12.40;;;8.00;;
80421;SDS011;69763;50.182;9.144;2023-08-21T06:00:27;13.57;;;7.20;;
80421;SDS011;69763;50.182;9.144;2023-08-21T06:02:53;8.57;;;6.35;;
80421;SDS011;69763;50.182;9.144;2023-08-21T06:05:18;8.93;;;6.90;;
80421;SDS011;69763;50.182;9.144;2023-08-21T06:07:44;11.30;;;6.80;;
80421;SDS011;69763;50.182;9.144;2023-08-21T06:10:09;11.25;;;7.30;;
80421;SDS011;69763;50.182;9.144;2023-08-21T06:12:36;9.63;;;6.85;;
80421;SDS011;69763;50.182;9.144;2023-08-21T06:15:02;14.27;;;7.30;;
80421;SDS011;69763;50.182;9.144;2023-08-21T06:17:28;15.60;;;7.47;;
80421;SDS011;69763;50.182;9.144;2023-08-21T06:19:53;10.60;;;8.10;;
80421;SDS011;69763;50.182;9.144;2023-08-21T06:24:44;12.33;;;6.90;;
80421;SDS011;69763;50.182;9.144;2023-08-21T06:29:36;10.43;;;7.40;;
80421;SDS011;69763;50.182;9.144;2023-08-21T06:32:02;14.38;;;7.47;;
80421;SDS011;69763;50.182;9.144;2023-08-21T06:34:28;9.20;;;6.97;;
80421;SDS011;69763;50.182;9.144;2023-08-21T06:36:53;12.32;;;7.72;;
80421;SDS011;69763;50.182;9.144;2023-08-21T06:41:44;10.33;;;7.70;;
80421;SDS011;69763;50.182;9.144;2023-08-21T06:44:09;12.35;;;8.45;;
80421;SDS011;69763;50.182;9.144;2023-08-21T06:49:02;11.50;;;8.05;;
80421;SDS011;69763;50.182;9.144;2023-08-21T06:51:27;11.75;;;7.57;;
80421;SDS011;69763;50.182;9.144;2023-08-21T06:53:52;13.00;;;7.68;;
80421;SDS011;69763;50.182;9.144;2023-08-21T06:58:43;10.73;;;7.90;;
80421;SDS011;69763;50.182;9.144;2023-08-21T07:01:09;20.15;;;9.52;;
80421;SDS011;69763;50.182;9.144;2023-08-21T07:03:35;10.85;;;7.40;;
80421;SDS011;69763;50.182;9.144;2023-08-21T07:06:01;10.30;;;7.55;;
80421;SDS011;69763;50.182;9.144;2023-08-21T07:08:27;11.27;;;7.57;;
80421;SDS011;69763;50.182;9.144;2023-08-21T07:10:53;13.25;;;7.78;;
80421;SDS011;69763;50.182;9.144;2023-08-21T07:15:44;10.27;;;7.13;;
80421;SDS011;69763;50.182;9.144;2023-08-21T07:20:36;11.57;;;7.77;;
80421;SDS011;69763;50.182;9.144;2023-08-21T07:23:02;12.80;;;8.30;;
80421;SDS011;69763;50.182;9.144;2023-08-21T07:27:53;11.50;;;7.57;;
80421;SDS011;69763;50.182;9.144;2023-08-21T07:32:44;11.03;;;6.77;;
80421;SDS011;69763;50.182;9.144;2023-08-21T07:37:37;10.80;;;6.67;;
80421;SDS011;69763;50.182;9.144;2023-08-21T07:40:02;10.70;;;8.00;;
80421;SDS011;69763;50.182;9.144;2023-08-21T07:42:29;16.80;;;8.45;;
80421;SDS011;69763;50.182;9.144;2023-08-21T07:44:55;14.25;;;8.30;;
80421;SDS011;69763;50.182;9.144;2023-08-21T07:49:45;11.63;;;7.87;;
80421;SDS011;69763;50.182;9.144;2023-08-21T07:54:37;14.97;;;8.60;;
80421;SDS011;69763;50.182;9.144;2023-08-21T07:57:03;13.60;;;8.65;;
80421;SDS011;69763;50.182;9.144;2023-08-21T08:01:54;12.38;;;8.40;;
80421;SDS011;69763;50.182;9.144;2023-08-21T08:04:19;13.68;;;9.40;;
80421;SDS011;69763;50.182;9.144;2023-08-21T08:06:45;12.32;;;8.98;;
80421;SDS011;69763;50.182;9.144;2023-08-21T08:09:10;10.95;;;8.77;;
80421;SDS011;69763;50.182;9.144;2023-08-21T08:14:02;16.08;;;9.30;;
80421;SDS011;69763;50.182;9.144;2023-08-21T08:16:28;14.35;;;9.30;;
80421;SDS011;69763;50.182;9.144;2023-08-21T08:18:53;12.43;;;9.05;;
80421;SDS011;69763;50.182;9.144;2023-08-21T08:21:19;13.00;;;9.50;;
80421;SDS011;69763;50.182;9.144;2023-08-21T08:23:44;12.43;;;9.02;;
80421;SDS011;69763;50.182;9.144;2023-08-21T08:26:10;14.20;;;9.90;;
80421;SDS011;69763;50.182;9.144;2023-08-21T08:28:36;13.95;;;9.10;;
80421;SDS011;69763;50.182;9.144;2023-08-21T08:31:02;15.80;;;9.88;;
80421;SDS011;69763;50.182;9.144;2023-08-21T08:33:27;16.63;;;10.38;;
80421;SDS011;69763;50.182;9.144;2023-08-21T08:35:53;13.90;;;10.00;;
80421;SDS011;69763;50.182;9.144;2023-08-21T08:38:18;14.05;;;9.38;;
80421;SDS011;69763;50.182;9.144;2023-08-21T08:40:44;15.65;;;10.43;;
80421;SDS011;69763;50.182;9.144;2023-08-21T08:43:11;14.00;;;10.45;;
80421;SDS011;69763;50.182;9.144;2023-08-21T08:45:38;12.50;;;9.05;;
80421;SDS011;69763;50.182;9.144;2023-08-21T08:48:05;14.93;;;10.07;;
80421;SDS011;69763;50.182;9.144;2023-08-21T08:50:32;15.10;;;10.50;;
80421;SDS011;69763;50.182;9.144;2023-08-21T08:52:58;12.80;;;9.73;;
80421;SDS011;69763;50.182;9.144;2023-08-21T08:55:24;17.13;;;9.18;;
80421;SDS011;69763;50.182;9.144;2023-08-21T08:57:50;12.65;;;9.45;;
80421;SDS011;69763;50.182;9.144;2023-08-21T09:00:16;13.77;;;9.88;;
80421;SDS011;69763;50.182;9.144;2023-08-21T09:02:43;11.43;;;8.50;;
80421;SDS011;69763;50.182;9.144;2023-08-21T09:05:08;13.55;;;9.10;;
80421;SDS011;69763;50.182;9.144;2023-08-21T09:07:34;13.27;;;9.10;;
80421;SDS011;69763;50.182;9.144;2023-08-21T09:10:00;12.15;;;8.52;;
80421;SDS011;69763;50.182;9.144;2023-08-21T09:12:25;13.73;;;7.63;;
80421;SDS011;69763;50.182;9.144;2023-08-21T09:14:51;10.52;;;8.73;;
80421;SDS011;69763;50.182;9.144;2023-08-21T09:17:16;12.32;;;7.72;;
80421;SDS011;69763;50.182;9.144;2023-08-21T09:19:43;12.38;;;8.45;;
80421;SDS011;69763;50.182;9.144;2023-08-21T09:22:09;11.13;;;8.15;;
80421;SDS011;69763;50.182;9.144;2023-08-21T09:24:36;12.77;;;9.30;;
80421;SDS011;69763;50.182;9.144;2023-08-21T09:27:02;13.32;;;8.73;;
80421;SDS011;69763;50.182;9.144;2023-08-21T09:29:28;11.82;;;8.88;;
80421;SDS011;69763;50.182;9.144;2023-08-21T09:32:03;11.52;;;8.02;;
80421;SDS011;69763;50.182;9.144;2023-08-21T09:34:33;9.95;;;8.30;;
80421;SDS011;69763;50.182;9.144;2023-08-21T09:37:00;13.02;;;8.82;;
80421;SDS011;69763;50.182;9.144;2023-08-21T09:39:27;14.07;;;8.57;;
80421;SDS011;69763;50.182;9.144;2023-08-21T09:41:58;10.98;;;8.52;;
80421;SDS011;69763;50.182;9.144;2023-08-21T09:44:23;11.02;;;8.27;;
80421;SDS011;69763;50.182;9.144;2023-08-21T09:46:49;9.25;;;7.78;;
80421;SDS011;69763;50.182;9.144;2023-08-21T09:49:15;14.98;;;7.38;;
80421;SDS011;69763;50.182;9.144;2023-08-21T09:51:42;13.07;;;6.70;;
80421;SDS011;69763;50.182;9.144;2023-08-21T09:54:09;8.50;;;6.35;;
80421;SDS011;69763;50.182;9.144;2023-08-21T09:56:35;7.50;;;6.68;;
80421;SDS011;69763;50.182;9.144;2023-08-21T09:59:01;11.57;;;8.77;;
80421;SDS011;69763;50.182;9.144;2023-08-21T10:01:27;10.68;;;7.97;;
80421;SDS011;69763;50.182;9.144;2023-08-21T10:03:54;8.07;;;7.25;;
80421;SDS011;69763;50.182;9.144;2023-08-21T10:06:23;10.13;;;7.90;;
80421;SDS011;69763;50.182;9.144;2023-08-21T10:08:49;12.88;;;8.15;;
80421;SDS011;69763;50.182;9.144;2023-08-21T10:11:20;14.90;;;8.45;;
80421;SDS011;69763;50.182;9.144;2023-08-21T10:13:45;12.70;;;7.78;;
80421;SDS011;69763;50.182;9.144;2023-08-21T10:16:12;9.82;;;7.70;;
80421;SDS011;69763;50.182;9.144;2023-08-21T10:18:42;8.18;;;6.72;;
80421;SDS011;69763;50.182;9.144;2023-08-21T10:21:12;9.50;;;6.75;;
80421;SDS011;69763;50.182;9.144;2023-08-21T10:23:39;10.57;;;7.47;;
80421;SDS011;69763;50.182;9.144;2023-08-21T10:26:05;13.02;;;7.03;;
80421;SDS011;69763;50.182;9.144;2023-08-21T10:28:43;9.07;;;5.88;;
80421;SDS011;69763;50.182;9.144;2023-08-21T10:31:27;7.57;;;5.57;;
80421;SDS011;69763;50.182;9.144;2023-08-21T10:33:53;8.65;;;5.53;;
80421;SDS011;69763;50.182;9.144;2023-08-21T10:39:12;8.05;;;4.82;;
80421;SDS011;69763;50.182;9.144;2023-08-21T10:41:38;10.18;;;5.15;;
80421;SDS011;69763;50.182;9.144;2023-08-21T10:44:06;8.02;;;5.97;;
80421;SDS011;69763;50.182;9.144;2023-08-21T10:46:45;10.15;;;5.43;;
80421;SDS011;69763;50.182;9.144;2023-08-21T10:49:15;7.82;;;6.53;;
80421;SDS011;69763;50.182;9.144;2023-08-21T10:51:41;7.78;;;5.85;;
80421;SDS011;69763;50.182;9.144;2023-08-21T10:54:10;8.45;;;6.57;;
80421;SDS011;69763;50.182;9.144;2023-08-21T10:56:36;8.27;;;5.55;;
80421;SDS011;69763;50.182;9.144;2023-08-21T10:59:02;7.10;;;4.57;;
80421;SDS011;69763;50.182;9.144;2023-08-21T11:01:42;6.47;;;5.20;;
80421;SDS011;69763;50.182;9.144;2023-08-21T11:04:08;7.22;;;4.97;;
80421;SDS011;69763;50.182;9.144;2023-08-21T11:06:35;8.30;;;5.25;;
80421;SDS011;69763;50.182;9.144;2023-08-21T11:09:00;7.35;;;5.57;;
80421;SDS011;69763;50.182;9.144;2023-08-21T11:11:28;7.32;;;5.50;;
80421;SDS011;69763;50.182;9.144;2023-08-21T11:13:53;6.63;;;4.80;;
80421;SDS011;69763;50.182;9.144;2023-08-21T11:16:19;7.28;;;5.10;;
80421;SDS011;69763;50.182;9.144;2023-08-21T11:18:45;6.68;;;4.95;;
80421;SDS011;69763;50.182;9.144;2023-08-21T11:21:11;11.23;;;5.35;;
80421;SDS011;69763;50.182;9.144;2023-08-21T11:23:37;6.75;;;4.88;;
80421;SDS011;69763;50.182;9.144;2023-08-21T11:26:04;5.90;;;3.78;;
80421;SDS011;69763;50.182;9.144;2023-08-21T11:28:30;8.35;;;4.22;;
80421;SDS011;69763;50.182;9.144;2023-08-21T11:30:56;9.30;;;4.43;;
80421;SDS011;69763;50.182;9.144;2023-08-21T11:33:23;5.28;;;4.10;;
80421;SDS011;69763;50.182;9.144;2023-08-21T11:35:49;5.40;;;4.28;;
80421;SDS011;69763;50.182;9.144;2023-08-21T11:38:16;6.70;;;4.05;;
80421;SDS011;69763;50.182;9.144;2023-08-21T11:40:42;8.73;;;4.57;;
80421;SDS011;69763;50.182;9.144;2023-08-21T11:43:15;5.10;;;3.95;;
80421;SDS011;69763;50.182;9.144;2023-08-21T11:45:40;5.45;;;3.90;;
80421;SDS011;69763;50.182;9.144;2023-08-21T11:48:06;5.47;;;4.30;;
80421;SDS011;69763;50.182;9.144;2023-08-21T11:50:32;6.43;;;4.35;;
80421;SDS011;69763;50.182;9.144;2023-08-21T11:52:59;8.38;;;4.60;;
80421;SDS011;69763;50.182;9.144;2023-08-21T11:55:24;4.85;;;3.40;;
80421;SDS011;69763;50.182;9.144;2023-08-21T11:57:50;4.53;;;3.38;;
80421;SDS011;69763;50.182;9.144;2023-08-21T12:00:16;6.53;;;3.28;;
80421;SDS011;69763;50.182;9.144;2023-08-21T12:02:43;4.90;;;3.28;;
80421;SDS011;69763;50.182;9.144;2023-08-21T12:05:13;4.75;;;3.38;;
80421;SDS011;69763;50.182;9.144;2023-08-21T12:07:39;4.53;;;3.10;;
80421;SDS011;69763;50.182;9.144;2023-08-21T12:10:07;5.35;;;3.40;;
80421;SDS011;69763;50.182;9.144;2023-08-21T12:12:33;4.82;;;2.65;;
80421;SDS011;69763;50.182;9.144;2023-08-21T12:14:58;4.15;;;2.97;;
80421;SDS011;69763;50.182;9.144;2023-08-21T12:17:24;5.55;;;3.15;;
80421;SDS011;69763;50.182;9.144;2023-08-21T12:19:50;3.63;;;2.75;;
80421;SDS011;69763;50.182;9.144;2023-08-21T12:22:15;5.57;;;3.30;;
80421;SDS011;69763;50.182;9.144;2023-08-21T12:24:40;4.90;;;2.72;;
80421;SDS011;69763;50.182;9.144;2023-08-21T12:27:07;5.60;;;2.70;;
80421;SDS011;69763;50.182;9.144;2023-08-21T12:29:33;4.40;;;3.03;;
80421;SDS011;69763;50.182;9.144;2023-08-21T12:31:59;3.00;;;2.20;;
80421;SDS011;69763;50.182;9.144;2023-08-21T12:34:24;4.40;;;2.78;;
80421;SDS011;69763;50.182;9.144;2023-08-21T12:36:50;5.70;;;2.97;;
80421;SDS011;69763;50.182;9.144;2023-08-21T12:39:16;4.45;;;2.75;;
80421;SDS011;69763;50.182;9.144;2023-08-21T12:41:41;3.10;;;2.15;;
80421;SDS011;69763;50.182;9.144;2023-08-21T12:44:08;3.10;;;2.30;;
80421;SDS011;69763;50.182;9.144;2023-08-21T12:46:33;3.15;;;2.08;;
80421;SDS011;69763;50.182;9.144;2023-08-21T12:48:59;3.65;;;2.58;;
80421;SDS011;69763;50.182;9.144;2023-08-21T12:51:24;5.63;;;3.08;;
80421;SDS011;69763;50.182;9.144;2023-08-21T12:53:50;4.55;;;2.88;;
80421;SDS011;69763;50.182;9.144;2023-08-21T12:56:16;5.57;;;2.90;;
80421;SDS011;69763;50.182;9.144;2023-08-21T12:58:41;6.93;;;2.65;;
80421;SDS011;69763;50.182;9.144;2023-08-21T13:01:09;3.33;;;2.70;;
80421;SDS011;69763;50.182;9.144;2023-08-21T13:03:34;3.83;;;2.72;;
80421;SDS011;69763;50.182;9.144;2023-08-21T13:06:00;6.32;;;3.00;;
80421;SDS011;69763;50.182;9.144;2023-08-21T13:08:25;4.40;;;3.63;;
80421;SDS011;69763;50.182;9.144;2023-08-21T13:10:51;4.97;;;3.03;;
80421;SDS011;69763;50.182;9.144;2023-08-21T13:13:16;5.53;;;2.55;;
80421;SDS011;69763;50.182;9.144;2023-08-21T13:15:42;5.97;;;3.15;;
80421;SDS011;69763;50.182;9.144;2023-08-21T13:18:09;6.45;;;3.10;;
80421;SDS011;69763;50.182;9.144;2023-08-21T13:20:34;4.20;;;3.38;;
80421;SDS011;69763;50.182;9.144;2023-08-21T13:22:59;3.65;;;3.15;;
80421;SDS011;69763;50.182;9.144;2023-08-21T13:25:25;3.90;;;3.13;;
80421;SDS011;69763;50.182;9.144;2023-08-21T13:27:50;3.90;;;2.88;;
80421;SDS011;69763;50.182;9.144;2023-08-21T13:30:17;3.78;;;2.72;;
80421;SDS011;69763;50.182;9.144;2023-08-21T13:32:42;5.70;;;2.80;;
80421;SDS011;69763;50.182;9.144;2023-08-21T13:35:10;5.30;;;3.15;;
80421;SDS011;69763;50.182;9.144;2023-08-21T13:37:36;5.78;;;2.88;;
80421;SDS011;69763;50.182;9.144;2023-08-21T13:40:03;4.30;;;2.90;;
80421;SDS011;69763;50.182;9.144;2023-08-21T13:42:29;5.03;;;2.78;;
80421;SDS011;69763;50.182;9.144;2023-08-21T13:44:55;7.85;;;3.08;;
80421;SDS011;69763;50.182;9.144;2023-08-21T13:47:20;4.30;;;2.90;;
80421;SDS011;69763;50.182;9.144;2023-08-21T13:49:46;4.40;;;3.00;;
80421;SDS011;69763;50.182;9.144;2023-08-21T13:52:12;3.72;;;2.80;;
80421;SDS011;69763;50.182;9.144;2023-08-21T13:54:38;4.47;;;3.08;;
80421;SDS011;69763;50.182;9.144;2023-08-21T13:57:03;3.95;;;3.10;;
80421;SDS011;69763;50.182;9.144;2023-08-21T13:59:29;4.55;;;3.30;;
80421;SDS011;69763;50.182;9.144;2023-08-21T14:01:54;7.13;;;2.90;;
80421;SDS011;69763;50.182;9.144;2023-08-21T14:04:20;4.32;;;3.10;;
80421;SDS011;69763;50.182;9.144;2023-08-21T14:06:45;4.50;;;3.00;;
80421;SDS011;69763;50.182;9.144;2023-08-21T14:09:12;7.50;;;3.15;;
80421;SDS011;69763;50.182;9.144;2023-08-21T14:11:38;4.45;;;3.00;;
80421;SDS011;69763;50.182;9.144;2023-08-21T14:14:03;3.58;;;3.00;;
80421;SDS011;69763;50.182;9.144;2023-08-21T14:16:29;4.75;;;2.80;;
80421;SDS011;69763;50.182;9.144;2023-08-21T14:18:54;4.30;;;3.00;;
80421;SDS011;69763;50.182;9.144;2023-08-21T14:21:20;4.18;;;3.28;;
80421;SDS011;69763;50.182;9.144;2023-08-21T14:23:45;5.05;;;2.72;;
80421;SDS011;69763;50.182;9.144;2023-08-21T14:26:12;7.32;;;3.15;;
80421;SDS011;69763;50.182;9.144;2023-08-21T14:28:37;4.93;;;3.40;;
80421;SDS011;69763;50.182;9.144;2023-08-21T14:31:03;4.43;;;3.20;;
80421;SDS011;69763;50.182;9.144;2023-08-21T14:33:28;4.65;;;3.50;;
80421;SDS011;69763;50.182;9.144;2023-08-21T14:35:54;4.38;;;2.97;;
80421;SDS011;69763;50.182;9.144;2023-08-21T14:38:19;5.85;;;3.65;;
80421;SDS011;69763;50.182;9.144;2023-08-21T14:40:45;5.40;;;3.38;;
80421;SDS011;69763;50.182;9.144;2023-08-21T14:43:11;4.05;;;3.33;;
80421;SDS011;69763;50.182;9.144;2023-08-21T14:45:37;5.45;;;3.50;;
80421;SDS011;69763;50.182;9.144;2023-08-21T14:48:02;5.22;;;3.70;;
80421;SDS011;69763;50.182;9.144;2023-08-21T14:50:28;5.50;;;3.50;;
80421;SDS011;69763;50.182;9.144;2023-08-21T14:52:54;5.60;;;3.67;;
80421;SDS011;69763;50.182;9.144;2023-08-21T14:55:20;4.88;;;3.55;;
80421;SDS011;69763;50.182;9.144;2023-08-21T14:57:45;4.85;;;3.20;;
80421;SDS011;69763;50.182;9.144;2023-08-21T15:00:13;5.03;;;3.40;;
80421;SDS011;69763;50.182;9.144;2023-08-21T15:02:39;6.75;;;3.63;;
80421;SDS011;69763;50.182;9.144;2023-08-21T15:05:04;5.07;;;3.78;;
80421;SDS011;69763;50.182;9.144;2023-08-21T15:07:30;6.90;;;3.40;;